Detall de PIREP

Printer-friendly versionPDF version

[2009/03/01 21:02:00]
Flight IATA:CT0001
Pilot Number:011
Company ICAO:CAT
Aircraft Type:F28/A
PAX:85
Departing Airport: LEAL
Destination Airport: LERS
Alternate Airport:LEPA
Online: VATSIM
Route:VLC A34 SAURA R60 AMPOL
Flight Level:FL200
No Slew and time accel
No pause
Crash detect
Detect pilot in Cockpit between each 30 and 45 minutes
21:02 Zero fuel Weight: 60536 Lbs, Fuel Weight: 8670 Lbs
21:02 VATSIM:LEAL 012030Z 29003KT 260V320 9999 FEW030 12/09 Q1015 NOSIG
21:02 VATSIM:LERS 012030Z 03004KT 9999 FEW040 08/05 Q1014
21:09 Parking Brakes off
21:18 Take-off
21:18 Take off Weight: 68628 Lbs
21:18 Wind: 316 @ 006 Knots Heading: 281
21:18 POS N38 16 55 W000 33 29
21:18 Flaps:2 at 159 Knots
21:18 Gear Up: 161 Knots
21:18 Flaps:1 at 219 Knots
21:19 Flaps:0 at 229 Knots
21:29 TOC
21:29 Fuel Weight: 6532 Lb
21:33 Wind:269@055 Knots Heading: 010 Ground S
peed: 420 Knots Altitude 20068 ft
21:42 TOD
21:42 Fuel Weight: 5327 Lb
21:48 Wind:285@006 Knots Heading: 044 Ground Speed: 320 Knots Altitude 12791 ft
21:57 Flaps:1 at 220 Knots
21:58 Flaps:2 at 201 Knots
21:58 Flaps:3 at 185 Knots
21:59 Flaps:4 at 165 Knots
21:59 Gear Down: 164 Knots
22:00 Flaps:5 at 151 Knots
22:01 TouchDown:Rate -268 ft/min Speed: 131 Knots
22:02 VATSIM:LERS 012130Z VRB01KT 9999 FEW040 08/05 Q1015
22:02 Land
22:02 Wind:013@002 Knots
22:02 Heading: 248
22:02 Flight Duration: 00:44
22:02 Landing Weight: 64938 Lbs
22:02 POS N41 08 47 E001 09 52
22:08 Parking brakes on
22:08 Block to Block Duration: 00:59
22:08 Final Fuel: 4232 Lbls
22:08 Spent Fuel: 4437 Lbls
22:08 Flight Length: 61 NM
22:08 TOD Land Length: 15 NM

Exportar CSV

Powered by Drupal - Modified by Danger4k